Time;durP1;ratioP1;P1;durP2;ratioP2;P2;SDS_P1;SDS_P2;PMS_P1;PMS_P2;Temp;Humidity;BMP_temperature;BMP_pressure;BME280_temperature;BME280_humidity;BME280_pressure;Samples;Min_cycle;Max_cycle;Signal;HPM_P1;HPM_P2
2021/03/07 00:00:57;;;;;;;5.63;2.47;;;3.50;99.90;;;;;;5043688;28;20579;-57
2021/03/07 00:03:26;;;;;;;5.83;2.60;;;3.50;99.90;;;;;;5027448;28;20479;-57
2021/03/07 00:05:54;;;;;;;4.40;2.77;;;3.40;99.90;;;;;;5026496;28;20585;-57
2021/03/07 00:08:22;;;;;;;4.20;2.83;;;3.40;99.90;;;;;;5027065;28;20473;-59
2021/03/07 00:10:49;;;;;;;3.97;2.50;;;3.50;99.90;;;;;;5030111;28;20503;-58
2021/03/07 00:13:17;;;;;;;4.60;2.70;;;3.50;99.90;;;;;;5023319;28;20479;-57
2021/03/07 00:15:44;;;;;;;5.77;2.57;;;3.50;99.90;;;;;;5026071;28;20956;-59
2021/03/07 00:18:19;;;;;;;6.57;2.73;;;3.50;99.90;;;;;;5027091;28;20578;-59
2021/03/07 00:20:48;;;;;;;4.60;2.40;;;3.50;99.90;;;;;;5026217;28;20479;-59
2021/03/07 00:23:15;;;;;;;6.50;2.60;;;3.40;99.90;;;;;;5026342;28;20488;-58
2021/03/07 00:25:43;;;;;;;4.23;2.20;;;3.40;99.90;;;;;;5025981;28;20477;-59
2021/03/07 00:28:10;;;;;;;5.63;2.40;;;3.40;99.90;;;;;;5025763;28;20499;-56
2021/03/07 00:30:37;;;;;;;4.10;2.43;;;3.40;99.90;;;;;;5026613;28;20474;-56
2021/03/07 00:33:05;;;;;;;3.87;2.47;;;3.40;99.90;;;;;;5025675;28;20882;-56
2021/03/07 00:35:33;;;;;;;3.20;2.27;;;3.40;99.90;;;;;;5026233;28;20992;-58
2021/03/07 00:38:01;;;;;;;4.63;2.27;;;3.40;99.90;;;;;;5026444;28;21044;-58
2021/03/07 00:40:28;;;;;;;6.63;2.50;;;3.50;99.90;;;;;;5028495;28;20482;-58
2021/03/07 00:42:56;;;;;;;6.00;2.50;;;3.40;99.90;;;;;;5039854;28;20472;-56
2021/03/07 00:45:23;;;;;;;6.00;2.80;;;3.40;99.90;;;;;;5012174;28;20559;-56
2021/03/07 00:47:51;;;;;;;6.30;2.60;;;3.40;99.90;;;;;;5026452;28;20481;-59
2021/03/07 00:50:23;;;;;;;6.23;2.63;;;3.40;99.90;;;;;;5030437;28;21001;-58
2021/03/07 00:52:56;;;;;;;2.67;2.43;;;3.40;99.90;;;;;;5046031;28;20978;-58
2021/03/07 00:55:25;;;;;;;5.40;2.40;;;3.40;99.90;;;;;;5025468;28;20477;-57
2021/03/07 00:57:53;;;;;;;7.23;2.73;;;3.40;99.90;;;;;;5026362;28;20537;-58
2021/03/07 01:00:24;;;;;;;3.73;2.40;;;3.50;99.90;;;;;;5025267;28;20561;-58
2021/03/07 01:02:51;;;;;;;3.87;2.30;;;3.50;99.90;;;;;;5025260;28;20494;-57
2021/03/07 01:05:19;;;;;;;4.27;2.20;;;3.50;99.90;;;;;;5027950;28;20955;-58
2021/03/07 01:07:47;;;;;;;5.53;2.50;;;3.40;99.90;;;;;;5030814;28;21077;-58
2021/03/07 01:10:18;;;;;;;4.33;2.00;;;3.40;99.90;;;;;;5017085;28;20518;-58
2021/03/07 01:12:49;;;;;;;3.87;2.47;;;3.40;99.90;;;;;;5028824;28;20478;-55
2021/03/07 01:15:18;;;;;;;3.60;2.17;;;3.40;99.90;;;;;;5032874;28;20515;-58
2021/03/07 01:17:46;;;;;;;6.83;2.37;;;3.40;99.90;;;;;;5031823;28;20536;-57
2021/03/07 01:20:17;;;;;;;5.50;2.20;;;3.40;99.90;;;;;;5014915;28;21067;-56
2021/03/07 01:22:54;;;;;;;4.90;2.20;;;3.40;99.90;;;;;;5013178;28;20963;-57
2021/03/07 01:25:23;;;;;;;3.97;2.30;;;3.40;99.90;;;;;;5025535;28;20477;-58
2021/03/07 01:27:51;;;;;;;7.37;2.60;;;3.40;99.90;;;;;;5031998;28;21399;-58
2021/03/07 01:30:23;;;;;;;6.80;2.17;;;3.40;99.90;;;;;;5032220;28;20560;-59
2021/03/07 01:32:51;;;;;;;4.27;2.20;;;3.40;99.90;;;;;;5032768;28;20559;-56
2021/03/07 01:35:21;;;;;;;4.60;1.97;;;3.40;99.90;;;;;;5031935;28;20904;-58
2021/03/07 01:37:48;;;;;;;3.97;2.20;;;3.40;99.90;;;;;;5030714;28;20950;-56
2021/03/07 01:40:20;;;;;;;3.97;2.07;;;3.40;99.90;;;;;;5033475;28;21015;-58
2021/03/07 01:42:49;;;;;;;4.27;2.10;;;3.40;99.90;;;;;;5026676;28;20475;-58
2021/03/07 01:45:20;;;;;;;4.93;2.10;;;3.40;99.90;;;;;;5032619;28;21025;-58
2021/03/07 01:47:50;;;;;;;6.27;2.73;;;3.40;99.90;;;;;;5032408;28;20561;-58
2021/03/07 01:50:22;;;;;;;4.63;2.40;;;3.50;99.90;;;;;;5039083;28;20510;-59
2021/03/07 01:52:50;;;;;;;3.60;2.00;;;3.40;99.90;;;;;;5033836;28;20825;-58
2021/03/07 01:55:20;;;;;;;5.60;2.00;;;3.40;99.90;;;;;;5031476;28;20490;-56
2021/03/07 01:57:48;;;;;;;3.33;2.30;;;3.40;99.90;;;;;;5030637;28;20578;-59
2021/03/07 02:00:18;;;;;;;2.97;1.83;;;3.40;99.90;;;;;;5032021;28;20513;-57
2021/03/07 02:02:45;;;;;;;5.20;2.07;;;3.40;99.90;;;;;;5032342;28;20494;-58
2021/03/07 02:05:15;;;;;;;9.00;2.23;;;3.40;99.90;;;;;;5034610;28;20498;-59
2021/03/07 02:07:43;;;;;;;4.03;2.30;;;3.50;99.90;;;;;;5030438;28;20484;-59
2021/03/07 02:10:16;;;;;;;5.27;2.10;;;3.50;99.90;;;;;;5048810;28;20523;-58
2021/03/07 02:12:49;;;;;;;4.47;2.17;;;3.40;99.90;;;;;;5051149;28;20607;-58
2021/03/07 02:15:19;;;;;;;3.17;2.30;;;3.40;99.90;;;;;;5052382;28;20585;-59
2021/03/07 02:17:56;;;;;;;6.53;2.57;;;3.40;99.90;;;;;;5051206;28;20496;-58
2021/03/07 02:20:28;;;;;;;7.73;2.40;;;3.40;99.90;;;;;;5051057;28;20478;-58
2021/03/07 02:23:01;;;;;;;4.03;2.03;;;3.40;99.90;;;;;;5052066;28;20986;-58
2021/03/07 02:25:30;;;;;;;4.90;2.20;;;3.40;99.90;;;;;;5047728;28;20564;-57
2021/03/07 02:28:01;;;;;;;6.87;2.40;;;3.40;99.90;;;;;;5047756;28;21022;-56
2021/03/07 02:30:29;;;;;;;4.47;2.17;;;3.40;99.90;;;;;;5044568;28;20490;-58
2021/03/07 02:33:09;;;;;;;4.57;2.07;;;3.40;99.90;;;;;;5029464;28;20474;-58
2021/03/07 02:35:41;;;;;;;3.77;2.00;;;3.40;99.90;;;;;;5047757;28;21015;-59
2021/03/07 02:38:11;;;;;;;5.53;2.33;;;3.40;99.90;;;;;;5048379;28;20987;-57
2021/03/07 02:40:41;;;;;;;4.07;2.20;;;3.40;99.90;;;;;;5033977;28;20567;-57
2021/03/07 02:43:13;;;;;;;3.20;1.93;;;3.40;99.90;;;;;;5046302;28;20544;-57
2021/03/07 02:45:44;;;;;;;2.73;2.00;;;3.40;99.90;;;;;;5027790;28;20483;-58
2021/03/07 02:48:15;;;;;;;4.63;1.80;;;3.40;99.90;;;;;;5026564;28;20580;-57
2021/03/07 02:50:46;;;;;;;4.23;2.20;;;3.40;99.90;;;;;;5039529;28;20512;-56
2021/03/07 02:53:18;;;;;;;3.63;2.10;;;3.40;99.90;;;;;;5028613;28;21077;-59
2021/03/07 02:55:53;;;;;;;2.80;2.00;;;3.40;99.90;;;;;;5028478;28;20542;-59
2021/03/07 02:58:23;;;;;;;8.80;1.90;;;3.40;99.90;;;;;;5027877;28;20475;-58
2021/03/07 03:01:01;;;;;;;3.73;2.20;;;3.40;99.90;;;;;;5027910;28;20485;-58
2021/03/07 03:03:33;;;;;;;2.53;1.83;;;3.40;99.90;;;;;;5032427;28;20479;-57
2021/03/07 03:06:00;;;;;;;3.07;2.00;;;3.40;99.90;;;;;;5036741;28;20911;-58
2021/03/07 03:08:30;;;;;;;2.20;1.60;;;3.40;99.90;;;;;;5038619;28;20570;-58
2021/03/07 03:10:59;;;;;;;5.47;2.33;;;3.40;99.90;;;;;;5052580;28;20982;-59
2021/03/07 03:13:35;;;;;;;4.13;2.00;;;3.40;99.90;;;;;;5031999;28;20514;-58
2021/03/07 03:16:05;;;;;;;5.10;2.30;;;3.40;99.90;;;;;;5027397;28;20839;-59
2021/03/07 03:18:40;;;;;;;4.07;1.93;;;3.40;99.90;;;;;;5030407;28;20992;-57
2021/03/07 03:21:11;;;;;;;3.33;2.20;;;3.40;99.90;;;;;;5026805;28;20562;-59
2021/03/07 03:23:40;;;;;;;5.30;2.17;;;3.40;99.90;;;;;;5027586;28;20906;-58
2021/03/07 03:26:09;;;;;;;3.40;1.80;;;3.40;99.90;;;;;;5027038;28;20482;-58
2021/03/07 03:28:38;;;;;;;4.27;2.30;;;3.50;99.90;;;;;;5026726;28;21001;-58
2021/03/07 03:31:06;;;;;;;3.77;2.27;;;3.40;99.90;;;;;;5026685;28;20545;-57
2021/03/07 03:33:33;;;;;;;2.47;1.90;;;3.50;99.90;;;;;;5027120;28;20481;-58
2021/03/07 03:36:02;;;;;;;3.07;2.27;;;3.50;99.90;;;;;;5026524;28;20479;-56
2021/03/07 03:38:36;;;;;;;3.30;1.87;;;3.40;99.90;;;;;;5030069;28;20521;-59
2021/03/07 03:41:05;;;;;;;5.17;2.37;;;3.50;99.90;;;;;;5033561;28;20906;-57
2021/03/07 03:43:57;;;;;;;3.93;2.43;;;3.40;99.90;;;;;;5012110;28;20563;-58
2021/03/07 03:46:26;;;;;;;5.07;2.40;;;3.40;99.90;;;;;;5044252;28;20489;-57
2021/03/07 03:49:02;;;;;;;4.13;2.33;;;3.40;99.90;;;;;;5044163;28;20973;-59
2021/03/07 03:51:34;;;;;;;3.77;2.17;;;3.40;99.90;;;;;;5045777;28;20821;-58
2021/03/07 03:54:04;;;;;;;3.67;2.30;;;3.50;99.90;;;;;;5047085;28;20492;-58
2021/03/07 03:56:32;;;;;;;3.47;2.10;;;3.50;99.90;;;;;;5046496;28;20477;-58
2021/03/07 03:59:03;;;;;;;3.63;2.17;;;3.40;99.90;;;;;;5047145;28;21169;-59
2021/03/07 04:01:33;;;;;;;2.77;2.40;;;3.40;99.90;;;;;;5035760;28;20508;-59
2021/03/07 04:04:04;;;;;;;3.93;2.50;;;3.40;99.90;;;;;;5014885;28;21073;-59
2021/03/07 04:06:33;;;;;;;4.80;2.47;;;3.40;99.90;;;;;;5027561;28;20479;-58
2021/03/07 04:09:00;;;;;;;2.33;2.07;;;3.40;99.90;;;;;;5031415;28;20557;-57
2021/03/07 04:11:28;;;;;;;3.33;2.40;;;3.40;99.90;;;;;;5047939;28;20535;-58
2021/03/07 04:14:17;;;;;;;2.90;2.43;;;3.40;99.90;;;;;;5044817;28;20489;-58
2021/03/07 04:16:48;;;;;;;4.40;2.10;;;3.40;99.90;;;;;;5046761;28;20979;-58
2021/03/07 04:19:17;;;;;;;4.53;2.47;;;3.40;99.90;;;;;;5047314;28;20493;-59
2021/03/07 04:21:46;;;;;;;3.20;2.30;;;3.40;99.90;;;;;;5046653;28;20477;-59
2021/03/07 04:24:14;;;;;;;4.83;2.60;;;3.40;99.90;;;;;;5047042;28;20571;-58
2021/03/07 04:26:41;;;;;;;3.17;2.70;;;3.40;99.90;;;;;;5045742;28;20557;-57
2021/03/07 04:29:09;;;;;;;4.50;2.60;;;3.40;99.90;;;;;;5060801;28;20534;-56
2021/03/07 04:31:37;;;;;;;3.97;2.50;;;3.40;99.90;;;;;;5066067;28;20895;-57
2021/03/07 04:34:06;;;;;;;7.30;2.77;;;3.40;99.90;;;;;;5067560;28;20843;-58
2021/03/07 04:36:33;;;;;;;3.30;2.40;;;3.40;99.90;;;;;;5066620;28;20476;-59
2021/03/07 04:39:01;;;;;;;3.30;2.57;;;3.30;99.90;;;;;;5036939;28;20492;-57
2021/03/07 04:41:29;;;;;;;4.10;2.23;;;3.30;99.90;;;;;;5029688;28;20522;-57
2021/03/07 04:43:57;;;;;;;3.53;2.30;;;3.30;99.90;;;;;;5033311;28;20481;-58
2021/03/07 04:46:26;;;;;;;4.57;2.20;;;3.30;99.90;;;;;;5033364;28;21196;-58
2021/03/07 04:48:56;;;;;;;3.73;2.30;;;3.40;99.90;;;;;;5038210;28;20469;-58
2021/03/07 04:51:24;;;;;;;5.77;2.40;;;3.40;99.90;;;;;;5029915;28;20554;-58
2021/03/07 04:53:52;;;;;;;6.20;2.50;;;3.40;99.90;;;;;;5026771;28;20568;-57
2021/03/07 04:56:19;;;;;;;4.27;2.80;;;3.40;99.90;;;;;;5028109;28;20511;-58
2021/03/07 04:58:47;;;;;;;3.67;2.27;;;3.40;99.90;;;;;;5036244;28;21014;-58
2021/03/07 05:01:14;;;;;;;5.17;2.70;;;3.40;99.90;;;;;;5030096;28;20483;-58
2021/03/07 05:03:42;;;;;;;5.60;2.60;;;3.40;99.90;;;;;;5034285;28;20484;-59
2021/03/07 05:06:11;;;;;;;4.30;2.67;;;3.40;99.90;;;;;;5040174;28;20561;-58
2021/03/07 05:08:39;;;;;;;4.10;2.50;;;3.40;99.90;;;;;;5045939;28;20571;-58
2021/03/07 05:11:06;;;;;;;4.87;2.87;;;3.40;99.90;;;;;;5057740;28;20554;-58
2021/03/07 05:13:34;;;;;;;6.13;2.40;;;3.50;99.90;;;;;;5066395;28;20979;-58
2021/03/07 05:16:03;;;;;;;6.25;2.67;;;3.50;99.90;;;;;;4648040;28;10001426;-58
2021/03/07 05:18:30;;;;;;;4.30;2.55;;;3.50;99.90;;;;;;1394771;28;10002118;-58
2021/03/07 05:20:58;;;;;;;3.93;2.60;;;3.40;99.90;;;;;;5066062;28;20565;-59
2021/03/07 05:23:26;;;;;;;4.67;2.63;;;3.40;99.90;;;;;;5065921;28;20498;-58
2021/03/07 05:25:54;;;;;;;4.30;2.70;;;3.40;99.90;;;;;;5065903;28;20526;-59
2021/03/07 05:28:22;;;;;;;3.93;2.57;;;3.40;99.90;;;;;;5066226;28;20481;-56
2021/03/07 05:30:49;;;;;;;6.00;3.10;;;3.40;99.90;;;;;;5065503;28;20472;-58
2021/03/07 05:33:17;;;;;;;6.37;2.80;;;3.40;99.90;;;;;;5065576;28;20484;-58
2021/03/07 05:35:44;;;;;;;3.93;2.53;;;3.40;99.90;;;;;;5065272;28;20538;-57
2021/03/07 05:38:12;;;;;;;3.93;2.50;;;3.40;99.90;;;;;;5043149;28;20555;-58
2021/03/07 05:40:41;;;;;;;4.47;2.20;;;3.40;99.90;;;;;;5030117;28;20476;-58
2021/03/07 05:43:09;;;;;;;7.93;2.50;;;3.40;99.90;;;;;;5040622;28;20482;-58
2021/03/07 05:45:37;;;;;;;4.87;2.90;;;3.40;99.90;;;;;;5036954;28;20483;-56
2021/03/07 05:48:05;;;;;;;4.13;2.60;;;3.40;99.90;;;;;;5037218;28;20759;-58
2021/03/07 05:50:33;;;;;;;5.23;2.80;;;3.50;99.90;;;;;;5041226;28;20572;-57
2021/03/07 05:53:01;;;;;;;5.20;2.87;;;3.40;99.90;;;;;;5039771;28;20553;-57
2021/03/07 05:55:29;;;;;;;4.17;2.80;;;3.40;99.90;;;;;;5039047;28;20911;-57
2021/03/07 05:58:01;;;;;;;6.20;2.80;;;3.40;99.90;;;;;;5018789;28;20489;-58
2021/03/07 06:00:29;;;;;;;4.13;2.90;;;3.40;99.90;;;;;;5037364;28;20474;-58
2021/03/07 06:02:56;;;;;;;4.63;2.80;;;3.40;99.90;;;;;;5053519;28;20497;-59
2021/03/07 06:05:24;;;;;;;4.03;2.70;;;3.40;99.90;;;;;;5069007;28;20530;-57
2021/03/07 06:07:51;;;;;;;5.07;2.83;;;3.40;99.90;;;;;;5036089;28;20476;-58
2021/03/07 06:10:23;;;;;;;5.10;2.70;;;3.40;99.90;;;;;;5034257;28;20517;-58
2021/03/07 06:13:00;;;;;;;7.07;3.10;;;3.40;99.90;;;;;;5030054;28;20979;-58
2021/03/07 06:15:48;;;;;;;5.83;3.00;;;3.40;99.90;;;;;;5030627;28;20498;-58
2021/03/07 06:18:19;;;;;;;5.37;2.47;;;3.40;99.90;;;;;;5029715;28;20474;-58
2021/03/07 06:20:48;;;;;;;4.47;2.90;;;3.40;99.90;;;;;;5029198;28;20570;-58
2021/03/07 06:23:16;;;;;;;6.17;3.40;;;3.40;99.90;;;;;;5029230;28;20520;-58
2021/03/07 06:25:51;;;;;;;7.87;3.10;;;3.40;99.90;;;;;;5029892;28;20606;-58
2021/03/07 06:28:23;;;;;;;5.30;3.00;;;3.40;99.90;;;;;;5029465;28;20478;-57
2021/03/07 06:30:51;;;;;;;6.23;3.17;;;3.40;99.90;;;;;;5028528;28;20250;-58
2021/03/07 06:33:33;;;;;;;3.37;3.00;;;3.40;99.90;;;;;;5029203;28;20568;-58
2021/03/07 06:36:17;;;;;;;4.60;2.93;;;3.40;99.90;;;;;;5032273;28;21107;-58
2021/03/07 06:38:47;;;;;;;3.60;3.03;;;3.40;99.90;;;;;;5033536;28;20529;-58
2021/03/07 06:41:17;;;;;;;8.87;3.23;;;3.40;99.90;;;;;;5034570;28;21109;-57
2021/03/07 06:43:47;;;;;;;5.00;3.23;;;3.50;99.90;;;;;;5019732;28;20491;-58
2021/03/07 06:46:30;;;;;;;6.43;3.63;;;3.50;99.90;;;;;;5046193;28;20997;-59
2021/03/07 06:48:59;;;;;;;4.40;3.47;;;3.50;99.90;;;;;;5040172;28;20528;-58
2021/03/07 06:51:29;;;;;;;5.90;3.40;;;3.50;99.90;;;;;;5048280;28;20474;-58
2021/03/07 06:53:58;;;;;;;5.77;3.37;;;3.60;99.90;;;;;;5045122;28;20542;-57
2021/03/07 06:56:44;;;;;;;6.00;3.30;;;3.60;99.90;;;;;;5032881;28;20538;-58
2021/03/07 06:59:17;;;;;;;7.80;3.50;;;3.60;99.90;;;;;;5043874;28;20473;-57
2021/03/07 07:01:48;;;;;;;5.30;3.47;;;3.60;99.90;;;;;;5028228;28;21107;-57
2021/03/07 07:04:17;;;;;;;5.80;3.50;;;3.60;99.90;;;;;;5032705;28;20502;-59
2021/03/07 07:07:01;;;;;;;6.13;3.83;;;3.70;99.90;;;;;;5036353;28;20812;-58
2021/03/07 07:09:29;;;;;;;7.60;3.40;;;3.70;99.90;;;;;;5043069;28;20246;-57
2021/03/07 07:11:56;;;;;;;5.57;3.23;;;3.70;99.90;;;;;;5047560;28;21078;-58
2021/03/07 07:14:38;;;;;;;6.83;3.70;;;3.70;99.90;;;;;;5047703;28;20486;-57
2021/03/07 07:17:06;;;;;;;5.73;3.43;;;3.70;99.90;;;;;;5035653;28;20525;-56
2021/03/07 07:19:35;;;;;;;7.70;3.37;;;3.70;99.90;;;;;;5037867;28;20542;-58
2021/03/07 07:22:04;;;;;;;4.50;3.00;;;3.70;99.90;;;;;;5031380;28;20497;-58
2021/03/07 07:24:33;;;;;;;7.33;3.50;;;3.70;99.90;;;;;;5028105;28;20474;-57
2021/03/07 07:27:01;;;;;;;6.37;3.93;;;3.80;99.90;;;;;;5028447;28;20502;-58
2021/03/07 07:29:28;;;;;;;3.83;3.13;;;3.80;99.90;;;;;;5028378;28;20503;-58
2021/03/07 07:32:03;;;;;;;6.70;3.23;;;3.80;99.90;;;;;;5029537;28;20533;-58
2021/03/07 07:34:35;;;;;;;5.63;3.27;;;3.80;99.90;;;;;;5044618;28;21092;-59
2021/03/07 07:37:07;;;;;;;5.43;3.40;;;3.80;99.90;;;;;;5045353;28;20483;-57
2021/03/07 07:39:38;;;;;;;4.93;3.50;;;3.90;99.90;;;;;;5040138;28;20481;-59
2021/03/07 07:42:22;;;;;;;8.37;3.20;;;3.90;99.90;;;;;;5047636;28;20575;-57
2021/03/07 07:44:50;;;;;;;6.63;3.40;;;3.90;99.90;;;;;;5009072;28;20553;-58
2021/03/07 07:47:18;;;;;;;6.23;3.00;;;3.90;99.90;;;;;;5008326;28;20485;-58
2021/03/07 07:49:49;;;;;;;4.97;3.27;;;3.90;99.90;;;;;;5009395;28;20475;-58
2021/03/07 07:52:49;;;;;;;9.80;3.63;;;3.90;99.90;;;;;;5019781;28;20514;-57
2021/03/07 07:55:16;;;;;;;5.30;2.83;;;4.00;99.90;;;;;;5024977;28;20716;-59
2021/03/07 07:57:50;;;;;;;5.63;3.10;;;4.00;99.90;;;;;;5025948;28;20561;-58
2021/03/07 08:00:22;;;;;;;5.70;2.77;;;4.00;99.90;;;;;;5026291;28;20517;-58
2021/03/07 08:02:53;;;;;;;4.80;3.00;;;4.00;99.90;;;;;;5026277;28;20617;-57
2021/03/07 08:05:44;;;;;;;6.83;3.47;;;4.10;99.90;;;;;;5027139;28;20604;-58
2021/03/07 08:08:14;;;;;;;6.07;2.73;;;4.00;99.90;;;;;;5028474;28;20515;-58
2021/03/07 08:10:51;;;;;;;4.43;2.80;;;4.10;99.90;;;;;;5027771;28;20506;-57
2021/03/07 08:13:46;;;;;;;4.67;2.60;;;4.10;99.90;;;;;;5042146;28;20500;-57
2021/03/07 08:16:41;;;;;;;4.90;2.37;;;4.10;99.90;;;;;;5054294;28;20552;-57
2021/03/07 08:19:12;;;;;;;5.73;2.93;;;4.10;99.90;;;;;;5035826;28;20819;-58
2021/03/07 08:21:59;;;;;;;5.57;3.00;;;4.10;99.90;;;;;;5040440;28;20490;-58
2021/03/07 08:24:54;;;;;;;5.30;2.80;;;4.10;99.90;;;;;;5047001;28;20479;-58
2021/03/07 08:27:37;;;;;;;7.47;2.80;;;4.20;99.90;;;;;;5046331;28;20499;-57
2021/03/07 08:30:08;;;;;;;8.83;3.27;;;4.20;99.90;;;;;;5035573;28;20559;-56
2021/03/07 08:32:38;;;;;;;6.73;2.97;;;4.20;99.90;;;;;;5032284;28;20515;-58
2021/03/07 08:35:20;;;;;;;6.23;2.93;;;4.30;99.90;;;;;;5023074;28;20481;-59
2021/03/07 08:38:10;;;;;;;7.33;2.27;;;4.30;99.90;;;;;;5026141;28;21009;-57
2021/03/07 08:40:39;;;;;;;4.17;2.13;;;4.30;99.90;;;;;;5015723;28;20517;-58
2021/03/07 08:43:51;;;;;;;7.90;2.37;;;4.30;99.90;;;;;;5026505;28;20524;-57
2021/03/07 08:46:23;;;;;;;5.50;2.53;;;4.30;99.90;;;;;;4988426;28;20515;-57
2021/03/07 08:48:55;;;;;;;7.60;2.40;;;4.30;99.90;;;;;;5034999;28;21297;-58
2021/03/07 08:51:34;;;;;;;4.57;2.53;;;4.40;99.90;;;;;;5034010;28;20468;-58
2021/03/07 08:54:04;;;;;;;7.83;3.10;;;4.40;99.90;;;;;;5015151;28;20858;-58
2021/03/07 08:56:35;;;;;;;4.87;2.30;;;4.40;99.90;;;;;;5020816;28;20493;-58
2021/03/07 08:59:04;;;;;;;7.30;2.73;;;4.50;99.90;;;;;;5024769;28;20487;-55
2021/03/07 09:01:32;;;;;;;5.93;2.60;;;4.50;99.90;;;;;;5041003;28;20876;-57
2021/03/07 09:04:02;;;;;;;6.23;3.10;;;4.60;99.90;;;;;;5045072;28;20481;-57
2021/03/07 09:06:33;;;;;;;4.77;2.80;;;4.70;99.90;;;;;;5027683;28;20471;-56
2021/03/07 09:09:07;;;;;;;7.37;3.07;;;4.80;99.90;;;;;;5027817;28;21087;-57
2021/03/07 09:11:36;;;;;;;4.20;3.23;;;4.90;99.90;;;;;;5027135;28;20860;-58
2021/03/07 09:14:04;;;;;;;10.77;3.77;;;4.90;99.90;;;;;;5028020;28;20485;-58
2021/03/07 09:16:40;;;;;;;8.43;3.50;;;5.00;99.90;;;;;;5027781;28;20291;-58
2021/03/07 09:19:23;;;;;;;9.37;3.80;;;5.10;99.90;;;;;;5040871;28;20607;-55
2021/03/07 09:22:20;;;;;;;8.13;4.10;;;5.10;99.90;;;;;;5021558;28;20252;-56
2021/03/07 09:25:04;;;;;;;11.37;4.40;;;5.20;99.90;;;;;;5016168;28;20483;-55
2021/03/07 09:27:34;;;;;;;7.53;4.33;;;5.40;99.90;;;;;;5031953;28;20474;-57
2021/03/07 09:30:09;;;;;;;7.70;4.20;;;5.50;99.90;;;;;;5023528;28;20483;-57
2021/03/07 09:32:38;;;;;;;8.47;4.67;;;5.70;99.90;;;;;;5036386;28;20280;-58
2021/03/07 09:35:27;;;;;;;10.53;4.53;;;5.70;99.90;;;;;;5051335;28;20234;-56
2021/03/07 09:38:03;;;;;;;8.20;4.27;;;5.80;99.90;;;;;;5051687;28;20486;-56
2021/03/07 09:40:35;;;;;;;6.33;3.83;;;5.80;99.90;;;;;;5050538;28;20480;-57
2021/03/07 09:43:06;;;;;;;9.87;4.23;;;5.90;99.90;;;;;;5051582;28;20243;-57
2021/03/07 09:45:35;;;;;;;7.03;4.47;;;5.90;99.90;;;;;;5047855;28;20236;-56
2021/03/07 09:48:20;;;;;;;5.87;4.20;;;6.00;99.90;;;;;;5038562;28;20247;-54
2021/03/07 09:50:49;;;;;;;8.67;4.40;;;6.10;99.90;;;;;;5031004;28;20236;-57
2021/03/07 09:53:18;;;;;;;7.93;4.83;;;6.20;99.90;;;;;;5031216;28;20232;-56
2021/03/07 09:55:46;;;;;;;9.83;4.80;;;6.30;99.90;;;;;;5031168;28;20389;-57
2021/03/07 09:58:14;;;;;;;7.77;4.60;;;6.40;99.90;;;;;;5031241;28;20320;-54
2021/03/07 10:00:48;;;;;;;7.63;4.57;;;6.60;99.90;;;;;;5032243;28;20589;-57
2021/03/07 10:03:22;;;;;;;6.90;3.97;;;6.80;99.90;;;;;;5030862;28;20581;-54
2021/03/07 10:06:08;;;;;;;7.03;4.37;;;6.70;99.90;;;;;;5031204;28;20233;-55
2021/03/07 10:08:37;;;;;;;7.43;3.63;;;6.70;99.90;;;;;;5047635;28;20710;-56
2021/03/07 10:11:17;;;;;;;7.20;3.67;;;6.80;99.90;;;;;;5050686;28;20285;-55
2021/03/07 10:13:46;;;;;;;7.43;4.10;;;6.60;99.90;;;;;;5051179;28;20263;-55
2021/03/07 10:16:27;;;;;;;8.73;3.90;;;6.50;99.90;;;;;;5051020;28;20641;-58
2021/03/07 10:19:13;;;;;;;6.27;3.80;;;6.50;99.90;;;;;;5038067;28;20239;-56
2021/03/07 10:21:42;;;;;;;5.87;4.13;;;6.40;99.90;;;;;;5012559;28;20236;-56
2021/03/07 10:24:18;;;;;;;7.07;3.77;;;6.40;99.90;;;;;;5014800;28;20239;-57
2021/03/07 10:26:49;;;;;;;7.97;3.90;;;6.30;99.90;;;;;;5026901;28;20319;-57
2021/03/07 10:29:23;;;;;;;5.83;3.80;;;6.50;99.90;;;;;;5020507;28;20322;-55
2021/03/07 10:32:18;;;;;;;9.43;4.80;;;6.50;99.90;;;;;;5024418;28;20229;-55
2021/03/07 10:34:50;;;;;;;5.77;3.70;;;6.60;99.90;;;;;;5010180;28;20315;-54
2021/03/07 10:37:37;;;;;;;7.07;4.00;;;6.50;99.90;;;;;;5011174;28;20245;-57
2021/03/07 10:40:09;;;;;;;8.37;3.73;;;6.50;99.90;;;;;;5027133;28;20704;-55
2021/03/07 10:42:39;;;;;;;7.20;3.80;;;6.60;99.90;;;;;;5037557;28;20236;-54
2021/03/07 10:45:19;;;;;;;5.33;3.57;;;6.60;99.90;;;;;;5033957;28;20255;-53
2021/03/07 10:48:01;;;;;;;9.27;4.33;;;6.50;99.90;;;;;;5040239;28;20227;-56
2021/03/07 10:50:29;;;;;;;5.83;3.80;;;6.40;99.90;;;;;;5038330;28;20672;-57
2021/03/07 10:52:57;;;;;;;7.57;4.47;;;6.30;99.90;;;;;;5030285;28;20229;-55
2021/03/07 10:55:27;;;;;;;6.67;3.90;;;6.20;99.90;;;;;;5029979;28;20235;-57
2021/03/07 10:57:54;;;;;;;8.40;4.43;;;6.10;99.90;;;;;;5029636;28;20296;-57
2021/03/07 11:00:23;;;;;;;6.77;4.00;;;6.10;99.90;;;;;;5030134;28;20600;-57
2021/03/07 11:02:54;;;;;;;6.37;4.70;;;6.20;99.90;;;;;;5030233;28;20228;-53
2021/03/07 11:05:23;;;;;;;8.63;4.67;;;6.10;99.90;;;;;;5035423;28;21160;-57
2021/03/07 11:07:53;;;;;;;9.73;4.93;;;6.10;99.90;;;;;;5032665;28;20283;-57
2021/03/07 11:10:22;;;;;;;9.33;5.30;;;6.10;99.90;;;;;;5030057;28;20247;-57
2021/03/07 11:12:51;;;;;;;9.97;5.97;;;6.10;99.90;;;;;;5030031;28;20703;-55
2021/03/07 11:15:19;;;;;;;7.00;5.47;;;6.10;99.90;;;;;;5029601;28;20287;-56
2021/03/07 11:17:53;;;;;;;7.37;5.20;;;6.00;99.90;;;;;;5030028;28;20777;-58
2021/03/07 11:20:21;;;;;;;8.13;5.67;;;5.90;99.90;;;;;;5029667;28;20247;-53
2021/03/07 11:22:48;;;;;;;11.77;6.30;;;5.90;99.90;;;;;;5037363;28;20266;-54
2021/03/07 11:25:16;;;;;;;9.43;6.30;;;5.80;99.90;;;;;;5043009;28;20243;-53
2021/03/07 11:27:43;;;;;;;12.00;7.07;;;5.80;99.90;;;;;;5034413;28;20267;-55
2021/03/07 11:30:15;;;;;;;10.93;6.57;;;5.80;99.90;;;;;;5047070;28;20231;-56
2021/03/07 11:32:49;;;;;;;10.70;7.23;;;5.70;99.90;;;;;;5052267;28;20287;-53
2021/03/07 11:35:17;;;;;;;13.23;7.27;;;5.70;99.90;;;;;;5058220;28;20235;-56
2021/03/07 11:37:46;;;;;;;11.70;7.33;;;5.80;99.90;;;;;;5049551;28;20237;-53
2021/03/07 11:40:14;;;;;;;10.63;6.87;;;5.80;99.90;;;;;;5068904;28;20273;-56
2021/03/07 11:42:41;;;;;;;12.00;8.00;;;5.90;99.90;;;;;;5045500;28;20285;-55
2021/03/07 11:45:09;;;;;;;14.83;10.73;;;6.00;99.90;;;;;;5032043;28;20604;-55
2021/03/07 11:47:39;;;;;;;12.93;8.70;;;6.00;99.90;;;;;;5044455;28;20262;-56
2021/03/07 11:50:10;;;;;;;12.13;8.37;;;6.00;99.90;;;;;;5038779;28;20243;-56
2021/03/07 11:52:37;;;;;;;13.00;8.57;;;6.00;99.90;;;;;;5043484;28;20237;-57
2021/03/07 11:55:11;;;;;;;12.03;8.47;;;6.10;99.90;;;;;;5044743;28;20300;-56
2021/03/07 11:57:38;;;;;;;13.60;7.80;;;6.20;99.90;;;;;;5041189;28;20722;-57
2021/03/07 12:00:08;;;;;;;13.70;8.57;;;6.10;99.90;;;;;;5044576;28;20710;-53
2021/03/07 12:02:40;;;;;;;13.40;8.33;;;6.10;99.90;;;;;;5047180;28;20243;-55
2021/03/07 12:05:10;;;;;;;11.63;8.67;;;6.00;99.90;;;;;;5041183;28;20764;-56
2021/03/07 12:07:37;;;;;;;16.03;9.13;;;6.00;99.90;;;;;;5060315;28;20259;-53
2021/03/07 12:10:07;;;;;;;13.50;9.57;;;6.00;99.90;;;;;;5065393;28;20236;-57
2021/03/07 12:12:34;;;;;;;12.07;8.90;;;6.10;99.90;;;;;;5037799;28;20677;-57
2021/03/07 12:15:03;;;;;;;15.67;9.77;;;6.10;99.90;;;;;;5029613;28;20236;-56
2021/03/07 12:17:35;;;;;;;12.43;9.43;;;6.10;99.90;;;;;;5008133;28;20237;-55
2021/03/07 12:20:08;;;;;;;14.23;10.03;;;6.10;99.90;;;;;;5008532;28;20263;-57
2021/03/07 12:22:35;;;;;;;18.13;10.30;;;6.10;99.90;;;;;;5014295;28;20239;-55
2021/03/07 12:25:06;;;;;;;20.00;9.90;;;6.10;99.90;;;;;;5015802;28;20240;-56
2021/03/07 12:27:33;;;;;;;20.97;12.27;;;6.00;99.90;;;;;;5022528;28;20255;-55
2021/03/07 12:30:01;;;;;;;20.27;11.00;;;5.90;99.90;;;;;;5024415;28;20651;-54
2021/03/07 12:32:54;;;;;;;26.57;12.93;;;5.80;99.90;;;;;;5024715;28;20247;-56
2021/03/07 12:35:22;;;;;;;19.27;11.90;;;5.80;99.90;;;;;;5019764;28;20236;-54
2021/03/07 12:37:50;;;;;;;18.87;12.10;;;5.80;99.90;;;;;;5023513;28;20239;-56
2021/03/07 12:40:17;;;;;;;19.03;12.07;;;5.80;99.90;;;;;;5030307;28;20252;-55
2021/03/07 12:42:45;;;;;;;19.43;11.70;;;5.90;99.90;;;;;;5027416;28;20240;-56
2021/03/07 12:45:13;;;;;;;21.20;12.40;;;5.90;99.90;;;;;;5021193;28;20267;-57
2021/03/07 12:47:40;;;;;;;19.47;12.50;;;5.90;99.90;;;;;;5018435;28;20232;-57
2021/03/07 12:50:25;;;;;;;22.37;13.10;;;5.80;99.90;;;;;;5023980;28;20658;-55
2021/03/07 12:52:53;;;;;;;22.23;12.27;;;5.80;99.90;;;;;;5016576;28;22491;-56
2021/03/07 12:55:21;;;;;;;19.43;12.70;;;5.90;99.90;;;;;;5018895;28;20418;-57
2021/03/07 12:57:48;;;;;;;22.50;13.67;;;5.90;99.90;;;;;;5022397;28;20295;-56
2021/03/07 13:00:19;;;;;;;24.07;13.07;;;5.90;99.90;;;;;;5017923;28;20327;-55
2021/03/07 13:02:46;;;;;;;24.87;14.03;;;5.90;99.90;;;;;;5015599;28;20674;-57
2021/03/07 13:05:15;;;;;;;19.40;14.33;;;6.00;99.90;;;;;;5019260;28;20244;-57
2021/03/07 13:07:44;;;;;;;21.90;14.00;;;6.00;99.90;;;;;;5022532;28;20251;-53
2021/03/07 13:10:13;;;;;;;19.93;13.73;;;5.90;99.90;;;;;;5018372;28;20240;-55
2021/03/07 13:12:41;;;;;;;23.00;13.33;;;5.90;99.90;;;;;;5016571;28;20686;-55
2021/03/07 13:15:10;;;;;;;21.33;13.13;;;5.90;99.90;;;;;;5019385;28;20328;-53
2021/03/07 13:17:40;;;;;;;23.20;14.37;;;6.00;99.90;;;;;;5020027;28;20224;-55